sensor_id;sensor_type;location;lat;lon;timestamp;P1;durP1;ratioP1;P2;durP2;ratioP2
19167;SDS011;9716;53.114;18.040;2023-12-14T00:01:25;21.53;;;7.67;;
19167;SDS011;9716;53.114;18.040;2023-12-14T00:03:54;19.80;;;6.73;;
19167;SDS011;9716;53.114;18.040;2023-12-14T00:06:22;16.93;;;6.73;;
19167;SDS011;9716;53.114;18.040;2023-12-14T00:08:52;21.83;;;8.00;;
19167;SDS011;9716;53.114;18.040;2023-12-14T00:11:20;20.80;;;8.20;;
19167;SDS011;9716;53.114;18.040;2023-12-14T00:13:49;16.00;;;6.93;;
19167;SDS011;9716;53.114;18.040;2023-12-14T00:16:17;17.17;;;7.13;;
19167;SDS011;9716;53.114;18.040;2023-12-14T00:18:46;18.30;;;7.00;;
19167;SDS011;9716;53.114;18.040;2023-12-14T00:21:14;16.33;;;6.57;;
19167;SDS011;9716;53.114;18.040;2023-12-14T00:23:43;16.37;;;6.20;;
19167;SDS011;9716;53.114;18.040;2023-12-14T00:26:12;16.33;;;6.47;;
19167;SDS011;9716;53.114;18.040;2023-12-14T00:28:41;16.90;;;6.43;;
19167;SDS011;9716;53.114;18.040;2023-12-14T00:31:10;16.13;;;6.47;;
19167;SDS011;9716;53.114;18.040;2023-12-14T00:33:38;15.37;;;5.50;;
19167;SDS011;9716;53.114;18.040;2023-12-14T00:36:07;13.23;;;5.53;;
19167;SDS011;9716;53.114;18.040;2023-12-14T00:38:36;17.23;;;6.80;;
19167;SDS011;9716;53.114;18.040;2023-12-14T00:41:06;19.33;;;7.07;;
19167;SDS011;9716;53.114;18.040;2023-12-14T00:43:36;13.00;;;6.13;;
19167;SDS011;9716;53.114;18.040;2023-12-14T00:46:05;12.63;;;5.87;;
19167;SDS011;9716;53.114;18.040;2023-12-14T00:48:33;13.23;;;5.37;;
19167;SDS011;9716;53.114;18.040;2023-12-14T00:51:02;16.17;;;5.83;;
19167;SDS011;9716;53.114;18.040;2023-12-14T00:53:31;14.63;;;6.50;;
19167;SDS011;9716;53.114;18.040;2023-12-14T00:55:59;15.13;;;6.17;;
19167;SDS011;9716;53.114;18.040;2023-12-14T00:58:28;20.17;;;7.27;;
19167;SDS011;9716;53.114;18.040;2023-12-14T01:00:57;12.23;;;6.43;;
19167;SDS011;9716;53.114;18.040;2023-12-14T01:03:26;12.03;;;6.23;;
19167;SDS011;9716;53.114;18.040;2023-12-14T01:05:54;13.50;;;5.50;;
19167;SDS011;9716;53.114;18.040;2023-12-14T01:08:23;17.40;;;6.80;;
19167;SDS011;9716;53.114;18.040;2023-12-14T01:10:51;15.70;;;6.30;;
19167;SDS011;9716;53.114;18.040;2023-12-14T01:13:20;15.07;;;6.10;;
19167;SDS011;9716;53.114;18.040;2023-12-14T01:15:49;16.27;;;6.33;;
19167;SDS011;9716;53.114;18.040;2023-12-14T01:18:18;17.07;;;5.73;;
19167;SDS011;9716;53.114;18.040;2023-12-14T01:20:47;14.53;;;5.67;;
19167;SDS011;9716;53.114;18.040;2023-12-14T01:23:15;15.17;;;5.50;;
19167;SDS011;9716;53.114;18.040;2023-12-14T01:25:47;13.87;;;5.43;;
19167;SDS011;9716;53.114;18.040;2023-12-14T01:28:15;11.63;;;6.03;;
19167;SDS011;9716;53.114;18.040;2023-12-14T01:30:43;17.20;;;6.40;;
19167;SDS011;9716;53.114;18.040;2023-12-14T01:33:12;15.03;;;5.47;;
19167;SDS011;9716;53.114;18.040;2023-12-14T01:35:42;15.23;;;5.53;;
19167;SDS011;9716;53.114;18.040;2023-12-14T01:38:10;18.93;;;6.30;;
19167;SDS011;9716;53.114;18.040;2023-12-14T01:40:39;13.47;;;5.83;;
19167;SDS011;9716;53.114;18.040;2023-12-14T01:43:08;14.47;;;5.50;;
19167;SDS011;9716;53.114;18.040;2023-12-14T01:45:37;21.17;;;6.93;;
19167;SDS011;9716;53.114;18.040;2023-12-14T01:48:05;11.93;;;5.90;;
19167;SDS011;9716;53.114;18.040;2023-12-14T01:50:34;14.90;;;6.03;;
19167;SDS011;9716;53.114;18.040;2023-12-14T01:53:04;15.77;;;5.90;;
19167;SDS011;9716;53.114;18.040;2023-12-14T01:55:32;11.63;;;5.47;;
19167;SDS011;9716;53.114;18.040;2023-12-14T01:58:01;15.47;;;5.57;;
19167;SDS011;9716;53.114;18.040;2023-12-14T02:00:30;15.33;;;6.13;;
19167;SDS011;9716;53.114;18.040;2023-12-14T02:03:04;18.37;;;6.27;;
19167;SDS011;9716;53.114;18.040;2023-12-14T02:05:33;13.63;;;5.80;;
19167;SDS011;9716;53.114;18.040;2023-12-14T02:08:04;17.17;;;6.03;;
19167;SDS011;9716;53.114;18.040;2023-12-14T02:10:32;18.97;;;6.43;;
19167;SDS011;9716;53.114;18.040;2023-12-14T02:13:01;14.77;;;6.17;;
19167;SDS011;9716;53.114;18.040;2023-12-14T02:15:30;19.33;;;6.57;;
19167;SDS011;9716;53.114;18.040;2023-12-14T02:17:58;12.00;;;5.83;;
19167;SDS011;9716;53.114;18.040;2023-12-14T02:20:27;15.97;;;6.43;;
19167;SDS011;9716;53.114;18.040;2023-12-14T02:22:57;19.90;;;5.97;;
19167;SDS011;9716;53.114;18.040;2023-12-14T02:25:25;15.37;;;5.23;;
19167;SDS011;9716;53.114;18.040;2023-12-14T02:27:54;13.33;;;5.73;;
19167;SDS011;9716;53.114;18.040;2023-12-14T02:30:22;14.50;;;6.00;;
19167;SDS011;9716;53.114;18.040;2023-12-14T02:32:51;13.27;;;5.77;;
19167;SDS011;9716;53.114;18.040;2023-12-14T02:35:19;13.00;;;5.07;;
19167;SDS011;9716;53.114;18.040;2023-12-14T02:37:49;17.30;;;5.50;;
19167;SDS011;9716;53.114;18.040;2023-12-14T02:40:19;14.93;;;5.17;;
19167;SDS011;9716;53.114;18.040;2023-12-14T02:42:47;17.30;;;5.73;;
19167;SDS011;9716;53.114;18.040;2023-12-14T02:45:16;14.50;;;5.50;;
19167;SDS011;9716;53.114;18.040;2023-12-14T02:47:45;10.90;;;4.47;;
19167;SDS011;9716;53.114;18.040;2023-12-14T02:50:15;16.90;;;5.87;;
19167;SDS011;9716;53.114;18.040;2023-12-14T02:52:43;19.70;;;7.00;;
19167;SDS011;9716;53.114;18.040;2023-12-14T02:55:12;15.37;;;6.17;;
19167;SDS011;9716;53.114;18.040;2023-12-14T02:57:42;15.23;;;5.87;;
19167;SDS011;9716;53.114;18.040;2023-12-14T03:00:11;10.33;;;5.33;;
19167;SDS011;9716;53.114;18.040;2023-12-14T03:02:43;13.83;;;5.73;;
19167;SDS011;9716;53.114;18.040;2023-12-14T03:05:12;16.83;;;6.70;;
19167;SDS011;9716;53.114;18.040;2023-12-14T03:07:40;16.43;;;5.90;;
19167;SDS011;9716;53.114;18.040;2023-12-14T03:10:09;13.33;;;5.97;;
19167;SDS011;9716;53.114;18.040;2023-12-14T03:12:37;13.23;;;5.47;;
19167;SDS011;9716;53.114;18.040;2023-12-14T03:15:08;10.83;;;5.40;;
19167;SDS011;9716;53.114;18.040;2023-12-14T03:17:37;14.43;;;6.07;;
19167;SDS011;9716;53.114;18.040;2023-12-14T03:20:06;17.17;;;6.03;;
19167;SDS011;9716;53.114;18.040;2023-12-14T03:22:35;18.23;;;7.03;;
19167;SDS011;9716;53.114;18.040;2023-12-14T03:25:05;14.73;;;6.27;;
19167;SDS011;9716;53.114;18.040;2023-12-14T03:27:36;20.50;;;6.23;;
19167;SDS011;9716;53.114;18.040;2023-12-14T03:30:05;16.33;;;6.33;;
19167;SDS011;9716;53.114;18.040;2023-12-14T03:32:38;12.43;;;5.90;;
19167;SDS011;9716;53.114;18.040;2023-12-14T03:35:07;13.43;;;5.77;;
19167;SDS011;9716;53.114;18.040;2023-12-14T03:37:36;18.00;;;6.20;;
19167;SDS011;9716;53.114;18.040;2023-12-14T03:40:05;14.83;;;5.73;;
19167;SDS011;9716;53.114;18.040;2023-12-14T03:42:35;11.30;;;5.30;;
19167;SDS011;9716;53.114;18.040;2023-12-14T03:45:04;12.60;;;6.47;;
19167;SDS011;9716;53.114;18.040;2023-12-14T03:47:34;16.43;;;6.30;;
19167;SDS011;9716;53.114;18.040;2023-12-14T03:50:05;11.97;;;5.63;;
19167;SDS011;9716;53.114;18.040;2023-12-14T03:52:36;16.37;;;6.10;;
19167;SDS011;9716;53.114;18.040;2023-12-14T03:55:05;16.87;;;5.73;;
19167;SDS011;9716;53.114;18.040;2023-12-14T03:57:34;11.77;;;5.30;;
19167;SDS011;9716;53.114;18.040;2023-12-14T04:00:03;11.20;;;4.87;;
19167;SDS011;9716;53.114;18.040;2023-12-14T04:02:32;11.40;;;4.80;;
19167;SDS011;9716;53.114;18.040;2023-12-14T04:05:01;11.47;;;5.63;;
19167;SDS011;9716;53.114;18.040;2023-12-14T04:07:31;11.73;;;5.63;;
19167;SDS011;9716;53.114;18.040;2023-12-14T04:10:00;13.43;;;5.30;;
19167;SDS011;9716;53.114;18.040;2023-12-14T04:12:28;11.50;;;5.23;;
19167;SDS011;9716;53.114;18.040;2023-12-14T04:14:57;13.27;;;5.80;;
19167;SDS011;9716;53.114;18.040;2023-12-14T04:17:26;16.23;;;6.53;;
19167;SDS011;9716;53.114;18.040;2023-12-14T04:19:54;17.93;;;6.53;;
19167;SDS011;9716;53.114;18.040;2023-12-14T04:22:23;11.20;;;5.37;;
19167;SDS011;9716;53.114;18.040;2023-12-14T04:24:53;15.70;;;6.73;;
19167;SDS011;9716;53.114;18.040;2023-12-14T04:27:22;14.20;;;5.97;;
19167;SDS011;9716;53.114;18.040;2023-12-14T04:29:53;15.10;;;5.40;;
19167;SDS011;9716;53.114;18.040;2023-12-14T04:32:22;12.63;;;6.10;;
19167;SDS011;9716;53.114;18.040;2023-12-14T04:34:50;13.03;;;5.30;;
19167;SDS011;9716;53.114;18.040;2023-12-14T04:37:19;11.27;;;5.63;;
19167;SDS011;9716;53.114;18.040;2023-12-14T04:39:47;12.77;;;5.70;;
19167;SDS011;9716;53.114;18.040;2023-12-14T04:42:17;13.30;;;5.27;;
19167;SDS011;9716;53.114;18.040;2023-12-14T04:44:45;13.40;;;5.60;;
19167;SDS011;9716;53.114;18.040;2023-12-14T04:47:14;9.57;;;4.70;;
19167;SDS011;9716;53.114;18.040;2023-12-14T04:49:42;14.90;;;7.07;;
19167;SDS011;9716;53.114;18.040;2023-12-14T04:52:11;12.67;;;5.60;;
19167;SDS011;9716;53.114;18.040;2023-12-14T04:54:39;10.77;;;5.23;;
19167;SDS011;9716;53.114;18.040;2023-12-14T04:57:09;14.87;;;5.70;;
19167;SDS011;9716;53.114;18.040;2023-12-14T04:59:38;12.87;;;5.80;;
19167;SDS011;9716;53.114;18.040;2023-12-14T05:02:09;13.57;;;5.40;;
19167;SDS011;9716;53.114;18.040;2023-12-14T05:04:38;11.10;;;5.40;;
19167;SDS011;9716;53.114;18.040;2023-12-14T05:07:06;11.83;;;5.57;;
19167;SDS011;9716;53.114;18.040;2023-12-14T05:09:35;8.50;;;4.33;;
19167;SDS011;9716;53.114;18.040;2023-12-14T05:12:03;9.33;;;5.27;;
19167;SDS011;9716;53.114;18.040;2023-12-14T05:14:32;9.47;;;4.77;;
19167;SDS011;9716;53.114;18.040;2023-12-14T05:17:02;10.00;;;5.03;;
19167;SDS011;9716;53.114;18.040;2023-12-14T05:19:32;12.67;;;4.47;;
19167;SDS011;9716;53.114;18.040;2023-12-14T05:22:03;10.83;;;4.80;;
19167;SDS011;9716;53.114;18.040;2023-12-14T05:24:31;13.90;;;5.73;;
19167;SDS011;9716;53.114;18.040;2023-12-14T05:27:00;12.63;;;5.63;;
19167;SDS011;9716;53.114;18.040;2023-12-14T05:29:28;16.47;;;7.13;;
19167;SDS011;9716;53.114;18.040;2023-12-14T05:31:58;13.87;;;5.30;;
19167;SDS011;9716;53.114;18.040;2023-12-14T05:34:28;12.43;;;4.60;;
19167;SDS011;9716;53.114;18.040;2023-12-14T05:36:56;10.77;;;5.23;;
19167;SDS011;9716;53.114;18.040;2023-12-14T05:39:25;10.27;;;5.40;;
19167;SDS011;9716;53.114;18.040;2023-12-14T05:41:53;11.53;;;5.03;;
19167;SDS011;9716;53.114;18.040;2023-12-14T05:44:22;11.53;;;5.10;;
19167;SDS011;9716;53.114;18.040;2023-12-14T05:46:51;12.17;;;5.87;;
19167;SDS011;9716;53.114;18.040;2023-12-14T05:49:20;13.03;;;5.37;;
19167;SDS011;9716;53.114;18.040;2023-12-14T05:51:50;10.77;;;5.57;;
19167;SDS011;9716;53.114;18.040;2023-12-14T05:54:18;12.73;;;5.43;;
19167;SDS011;9716;53.114;18.040;2023-12-14T05:56:47;18.10;;;6.27;;
19167;SDS011;9716;53.114;18.040;2023-12-14T05:59:16;13.83;;;6.13;;
19167;SDS011;9716;53.114;18.040;2023-12-14T06:01:44;10.67;;;5.03;;
19167;SDS011;9716;53.114;18.040;2023-12-14T06:04:14;11.60;;;5.20;;
19167;SDS011;9716;53.114;18.040;2023-12-14T06:06:43;13.70;;;5.57;;
19167;SDS011;9716;53.114;18.040;2023-12-14T06:09:12;12.43;;;5.60;;
19167;SDS011;9716;53.114;18.040;2023-12-14T06:11:41;13.27;;;5.53;;
19167;SDS011;9716;53.114;18.040;2023-12-14T06:14:10;12.67;;;5.60;;
19167;SDS011;9716;53.114;18.040;2023-12-14T06:16:38;11.07;;;5.67;;
19167;SDS011;9716;53.114;18.040;2023-12-14T06:19:06;12.70;;;6.17;;
19167;SDS011;9716;53.114;18.040;2023-12-14T06:21:35;12.43;;;5.63;;
19167;SDS011;9716;53.114;18.040;2023-12-14T06:24:04;12.70;;;6.87;;
19167;SDS011;9716;53.114;18.040;2023-12-14T06:26:34;15.07;;;6.10;;
19167;SDS011;9716;53.114;18.040;2023-12-14T06:29:07;12.33;;;4.70;;
19167;SDS011;9716;53.114;18.040;2023-12-14T06:31:36;15.50;;;6.43;;
19167;SDS011;9716;53.114;18.040;2023-12-14T06:34:05;13.57;;;6.17;;
19167;SDS011;9716;53.114;18.040;2023-12-14T06:36:34;14.53;;;5.97;;
19167;SDS011;9716;53.114;18.040;2023-12-14T06:39:03;11.80;;;4.97;;
19167;SDS011;9716;53.114;18.040;2023-12-14T06:41:31;13.67;;;5.10;;
19167;SDS011;9716;53.114;18.040;2023-12-14T06:44:01;13.00;;;5.00;;
19167;SDS011;9716;53.114;18.040;2023-12-14T06:46:30;15.50;;;5.93;;
19167;SDS011;9716;53.114;18.040;2023-12-14T06:48:59;9.27;;;4.40;;
19167;SDS011;9716;53.114;18.040;2023-12-14T06:51:28;13.27;;;5.57;;
19167;SDS011;9716;53.114;18.040;2023-12-14T06:53:56;13.27;;;5.20;;
19167;SDS011;9716;53.114;18.040;2023-12-14T06:56:25;12.33;;;5.63;;
19167;SDS011;9716;53.114;18.040;2023-12-14T06:58:53;13.60;;;5.70;;
19167;SDS011;9716;53.114;18.040;2023-12-14T07:01:23;14.90;;;5.43;;
19167;SDS011;9716;53.114;18.040;2023-12-14T07:03:52;16.17;;;6.80;;
19167;SDS011;9716;53.114;18.040;2023-12-14T07:06:20;11.70;;;5.57;;
19167;SDS011;9716;53.114;18.040;2023-12-14T07:08:49;11.47;;;5.60;;
19167;SDS011;9716;53.114;18.040;2023-12-14T07:11:17;10.30;;;5.30;;
19167;SDS011;9716;53.114;18.040;2023-12-14T07:13:46;11.17;;;5.70;;
19167;SDS011;9716;53.114;18.040;2023-12-14T07:16:15;9.67;;;5.03;;
19167;SDS011;9716;53.114;18.040;2023-12-14T07:18:45;13.70;;;4.50;;
19167;SDS011;9716;53.114;18.040;2023-12-14T07:21:14;9.47;;;4.70;;
19167;SDS011;9716;53.114;18.040;2023-12-14T07:23:43;14.27;;;5.27;;
19167;SDS011;9716;53.114;18.040;2023-12-14T07:26:12;16.33;;;6.43;;
19167;SDS011;9716;53.114;18.040;2023-12-14T07:28:40;12.93;;;5.43;;
19167;SDS011;9716;53.114;18.040;2023-12-14T07:31:09;13.50;;;5.83;;
19167;SDS011;9716;53.114;18.040;2023-12-14T07:33:37;15.77;;;5.57;;
19167;SDS011;9716;53.114;18.040;2023-12-14T07:36:08;12.10;;;4.80;;
19167;SDS011;9716;53.114;18.040;2023-12-14T07:38:36;11.03;;;5.37;;
19167;SDS011;9716;53.114;18.040;2023-12-14T07:41:05;11.00;;;5.07;;
19167;SDS011;9716;53.114;18.040;2023-12-14T07:43:33;12.37;;;6.00;;
19167;SDS011;9716;53.114;18.040;2023-12-14T07:46:02;11.20;;;4.43;;
19167;SDS011;9716;53.114;18.040;2023-12-14T07:48:31;10.03;;;5.80;;
19167;SDS011;9716;53.114;18.040;2023-12-14T07:50:59;10.00;;;5.17;;
19167;SDS011;9716;53.114;18.040;2023-12-14T07:53:29;13.13;;;5.17;;
19167;SDS011;9716;53.114;18.040;2023-12-14T07:55:58;12.10;;;5.87;;
19167;SDS011;9716;53.114;18.040;2023-12-14T07:58:29;12.93;;;5.70;;
19167;SDS011;9716;53.114;18.040;2023-12-14T08:00:57;10.43;;;5.17;;
19167;SDS011;9716;53.114;18.040;2023-12-14T08:03:26;14.47;;;5.27;;
19167;SDS011;9716;53.114;18.040;2023-12-14T08:05:55;10.97;;;4.90;;
19167;SDS011;9716;53.114;18.040;2023-12-14T08:08:23;13.30;;;6.10;;
19167;SDS011;9716;53.114;18.040;2023-12-14T08:10:54;10.57;;;5.40;;
19167;SDS011;9716;53.114;18.040;2023-12-14T08:13:22;15.20;;;6.43;;
19167;SDS011;9716;53.114;18.040;2023-12-14T08:15:51;15.77;;;5.97;;
19167;SDS011;9716;53.114;18.040;2023-12-14T08:18:19;9.97;;;4.73;;
19167;SDS011;9716;53.114;18.040;2023-12-14T08:20:48;10.73;;;4.20;;
19167;SDS011;9716;53.114;18.040;2023-12-14T08:23:21;8.90;;;4.23;;
19167;SDS011;9716;53.114;18.040;2023-12-14T08:25:53;11.30;;;5.37;;
19167;SDS011;9716;53.114;18.040;2023-12-14T08:28:23;8.27;;;4.13;;
19167;SDS011;9716;53.114;18.040;2023-12-14T08:30:52;10.37;;;4.80;;
19167;SDS011;9716;53.114;18.040;2023-12-14T08:33:20;9.87;;;5.10;;
19167;SDS011;9716;53.114;18.040;2023-12-14T08:35:50;9.40;;;4.00;;
19167;SDS011;9716;53.114;18.040;2023-12-14T08:38:19;8.00;;;4.00;;
19167;SDS011;9716;53.114;18.040;2023-12-14T08:40:47;7.50;;;3.93;;
19167;SDS011;9716;53.114;18.040;2023-12-14T08:43:17;9.47;;;4.73;;
19167;SDS011;9716;53.114;18.040;2023-12-14T08:45:46;9.57;;;4.70;;
19167;SDS011;9716;53.114;18.040;2023-12-14T08:48:15;9.47;;;4.83;;
19167;SDS011;9716;53.114;18.040;2023-12-14T08:50:44;8.33;;;4.00;;
19167;SDS011;9716;53.114;18.040;2023-12-14T08:53:13;9.60;;;4.73;;
19167;SDS011;9716;53.114;18.040;2023-12-14T08:55:42;7.47;;;4.20;;
19167;SDS011;9716;53.114;18.040;2023-12-14T08:58:10;6.20;;;3.23;;
19167;SDS011;9716;53.114;18.040;2023-12-14T09:00:40;7.00;;;3.90;;
19167;SDS011;9716;53.114;18.040;2023-12-14T09:03:09;9.97;;;4.43;;
19167;SDS011;9716;53.114;18.040;2023-12-14T09:05:38;7.77;;;3.17;;
19167;SDS011;9716;53.114;18.040;2023-12-14T09:08:09;8.27;;;4.13;;
19167;SDS011;9716;53.114;18.040;2023-12-14T09:10:38;11.03;;;4.77;;
19167;SDS011;9716;53.114;18.040;2023-12-14T09:13:07;7.53;;;3.70;;
19167;SDS011;9716;53.114;18.040;2023-12-14T09:15:36;8.67;;;4.30;;
19167;SDS011;9716;53.114;18.040;2023-12-14T09:18:05;9.63;;;4.90;;
19167;SDS011;9716;53.114;18.040;2023-12-14T09:20:34;10.73;;;4.87;;
19167;SDS011;9716;53.114;18.040;2023-12-14T09:23:04;10.60;;;4.17;;
19167;SDS011;9716;53.114;18.040;2023-12-14T09:25:32;11.43;;;4.40;;
19167;SDS011;9716;53.114;18.040;2023-12-14T09:28:01;11.80;;;4.13;;
19167;SDS011;9716;53.114;18.040;2023-12-14T09:30:29;8.10;;;4.40;;
19167;SDS011;9716;53.114;18.040;2023-12-14T09:32:58;10.33;;;4.43;;
19167;SDS011;9716;53.114;18.040;2023-12-14T09:35:31;8.80;;;3.93;;
19167;SDS011;9716;53.114;18.040;2023-12-14T09:37:59;5.40;;;3.53;;
19167;SDS011;9716;53.114;18.040;2023-12-14T09:40:28;10.57;;;4.37;;
19167;SDS011;9716;53.114;18.040;2023-12-14T09:42:56;8.57;;;4.10;;
19167;SDS011;9716;53.114;18.040;2023-12-14T09:45:27;8.97;;;3.83;;
19167;SDS011;9716;53.114;18.040;2023-12-14T09:47:56;9.67;;;3.93;;
19167;SDS011;9716;53.114;18.040;2023-12-14T09:50:26;13.17;;;5.30;;
19167;SDS011;9716;53.114;18.040;2023-12-14T09:52:56;10.23;;;3.90;;
19167;SDS011;9716;53.114;18.040;2023-12-14T09:55:24;9.90;;;4.43;;
19167;SDS011;9716;53.114;18.040;2023-12-14T09:57:53;6.27;;;2.93;;
19167;SDS011;9716;53.114;18.040;2023-12-14T10:03:21;7.33;;;3.80;;
19167;SDS011;9716;53.114;18.040;2023-12-14T10:05:51;7.90;;;3.63;;
19167;SDS011;9716;53.114;18.040;2023-12-14T10:08:22;8.13;;;3.47;;
19167;SDS011;9716;53.114;18.040;2023-12-14T10:10:51;11.00;;;3.97;;
19167;SDS011;9716;53.114;18.040;2023-12-14T10:13:35;7.53;;;3.20;;
19167;SDS011;9716;53.114;18.040;2023-12-14T10:16:05;7.77;;;3.47;;
19167;SDS011;9716;53.114;18.040;2023-12-14T10:18:33;6.80;;;3.27;;
19167;SDS011;9716;53.114;18.040;2023-12-14T10:21:05;7.03;;;3.63;;
19167;SDS011;9716;53.114;18.040;2023-12-14T10:23:36;9.77;;;4.63;;
19167;SDS011;9716;53.114;18.040;2023-12-14T10:26:04;10.20;;;4.33;;
19167;SDS011;9716;53.114;18.040;2023-12-14T10:28:33;8.63;;;3.47;;
19167;SDS011;9716;53.114;18.040;2023-12-14T10:31:02;5.67;;;3.57;;
19167;SDS011;9716;53.114;18.040;2023-12-14T10:33:32;8.73;;;3.73;;
19167;SDS011;9716;53.114;18.040;2023-12-14T10:36:03;9.60;;;3.10;;
19167;SDS011;9716;53.114;18.040;2023-12-14T10:38:33;6.87;;;3.83;;
19167;SDS011;9716;53.114;18.040;2023-12-14T10:41:05;6.87;;;2.60;;
19167;SDS011;9716;53.114;18.040;2023-12-14T10:43:34;5.20;;;3.00;;
19167;SDS011;9716;53.114;18.040;2023-12-14T10:46:16;9.20;;;3.57;;
19167;SDS011;9716;53.114;18.040;2023-12-14T10:48:45;6.27;;;3.47;;
19167;SDS011;9716;53.114;18.040;2023-12-14T10:51:16;8.20;;;3.73;;
19167;SDS011;9716;53.114;18.040;2023-12-14T10:53:48;7.40;;;3.40;;
19167;SDS011;9716;53.114;18.040;2023-12-14T10:56:18;6.40;;;3.63;;
19167;SDS011;9716;53.114;18.040;2023-12-14T10:58:49;7.50;;;3.37;;
19167;SDS011;9716;53.114;18.040;2023-12-14T11:01:21;7.73;;;3.10;;
19167;SDS011;9716;53.114;18.040;2023-12-14T11:03:53;7.90;;;3.60;;
19167;SDS011;9716;53.114;18.040;2023-12-14T11:06:29;7.23;;;3.00;;
19167;SDS011;9716;53.114;18.040;2023-12-14T11:09:04;5.77;;;3.50;;
19167;SDS011;9716;53.114;18.040;2023-12-14T11:11:43;5.50;;;3.00;;
19167;SDS011;9716;53.114;18.040;2023-12-14T11:14:24;6.70;;;3.20;;
19167;SDS011;9716;53.114;18.040;2023-12-14T11:16:53;9.07;;;3.27;;
19167;SDS011;9716;53.114;18.040;2023-12-14T11:19:25;6.30;;;3.33;;
19167;SDS011;9716;53.114;18.040;2023-12-14T11:22:10;8.23;;;4.10;;
19167;SDS011;9716;53.114;18.040;2023-12-14T11:24:53;6.97;;;3.03;;
19167;SDS011;9716;53.114;18.040;2023-12-14T11:27:26;8.47;;;3.80;;
19167;SDS011;9716;53.114;18.040;2023-12-14T11:29:57;9.07;;;2.97;;
19167;SDS011;9716;53.114;18.040;2023-12-14T11:32:27;9.87;;;3.77;;
19167;SDS011;9716;53.114;18.040;2023-12-14T11:34:57;7.33;;;3.43;;
19167;SDS011;9716;53.114;18.040;2023-12-14T11:37:26;7.10;;;3.17;;
19167;SDS011;9716;53.114;18.040;2023-12-14T11:39:56;8.37;;;2.93;;
19167;SDS011;9716;53.114;18.040;2023-12-14T11:42:24;6.10;;;3.30;;
19167;SDS011;9716;53.114;18.040;2023-12-14T11:44:58;7.33;;;3.50;;
19167;SDS011;9716;53.114;18.040;2023-12-14T11:47:27;8.13;;;3.30;;
19167;SDS011;9716;53.114;18.040;2023-12-14T11:49:55;5.13;;;3.00;;
19167;SDS011;9716;53.114;18.040;2023-12-14T11:52:24;6.77;;;2.80;;
19167;SDS011;9716;53.114;18.040;2023-12-14T11:54:52;8.23;;;2.70;;
19167;SDS011;9716;53.114;18.040;2023-12-14T11:57:27;8.47;;;3.47;;
19167;SDS011;9716;53.114;18.040;2023-12-14T11:59:57;13.73;;;3.67;;
19167;SDS011;9716;53.114;18.040;2023-12-14T12:02:27;7.73;;;3.20;;
19167;SDS011;9716;53.114;18.040;2023-12-14T12:04:56;9.00;;;3.30;;
19167;SDS011;9716;53.114;18.040;2023-12-14T12:07:24;8.03;;;3.27;;
19167;SDS011;9716;53.114;18.040;2023-12-14T12:09:53;8.40;;;3.33;;
19167;SDS011;9716;53.114;18.040;2023-12-14T12:12:23;11.63;;;3.30;;
19167;SDS011;9716;53.114;18.040;2023-12-14T12:14:51;6.00;;;3.00;;
19167;SDS011;9716;53.114;18.040;2023-12-14T12:17:21;6.03;;;3.40;;
19167;SDS011;9716;53.114;18.040;2023-12-14T12:19:49;6.10;;;2.90;;
19167;SDS011;9716;53.114;18.040;2023-12-14T12:22:18;6.13;;;3.20;;
19167;SDS011;9716;53.114;18.040;2023-12-14T12:24:46;4.30;;;2.60;;
19167;SDS011;9716;53.114;18.040;2023-12-14T12:27:28;9.03;;;3.07;;
19167;SDS011;9716;53.114;18.040;2023-12-14T12:29:56;6.37;;;3.03;;
19167;SDS011;9716;53.114;18.040;2023-12-14T12:32:24;5.87;;;3.10;;
19167;SDS011;9716;53.114;18.040;2023-12-14T12:34:53;5.93;;;2.70;;
19167;SDS011;9716;53.114;18.040;2023-12-14T12:37:22;5.83;;;2.93;;
19167;SDS011;9716;53.114;18.040;2023-12-14T12:39:50;5.63;;;2.57;;
19167;SDS011;9716;53.114;18.040;2023-12-14T12:42:19;7.07;;;3.20;;
19167;SDS011;9716;53.114;18.040;2023-12-14T12:44:52;16.93;;;3.67;;
19167;SDS011;9716;53.114;18.040;2023-12-14T12:47:20;6.27;;;3.30;;
19167;SDS011;9716;53.114;18.040;2023-12-14T12:49:49;8.63;;;3.53;;
19167;SDS011;9716;53.114;18.040;2023-12-14T12:52:19;7.50;;;2.80;;
19167;SDS011;9716;53.114;18.040;2023-12-14T12:54:47;8.13;;;3.60;;
19167;SDS011;9716;53.114;18.040;2023-12-14T12:57:16;5.93;;;2.60;;
19167;SDS011;9716;53.114;18.040;2023-12-14T12:59:45;8.77;;;3.10;;
19167;SDS011;9716;53.114;18.040;2023-12-14T13:02:17;4.30;;;2.40;;
19167;SDS011;9716;53.114;18.040;2023-12-14T13:04:48;6.20;;;3.10;;
19167;SDS011;9716;53.114;18.040;2023-12-14T13:07:17;5.93;;;3.00;;
19167;SDS011;9716;53.114;18.040;2023-12-14T13:09:48;7.47;;;3.00;;
19167;SDS011;9716;53.114;18.040;2023-12-14T13:12:16;4.83;;;2.80;;
19167;SDS011;9716;53.114;18.040;2023-12-14T13:14:45;6.77;;;3.10;;
19167;SDS011;9716;53.114;18.040;2023-12-14T13:17:13;7.67;;;2.90;;
19167;SDS011;9716;53.114;18.040;2023-12-14T13:19:46;3.87;;;2.30;;
19167;SDS011;9716;53.114;18.040;2023-12-14T13:22:15;4.80;;;2.30;;
19167;SDS011;9716;53.114;18.040;2023-12-14T13:24:44;4.50;;;2.70;;
19167;SDS011;9716;53.114;18.040;2023-12-14T13:27:13;5.30;;;2.93;;
19167;SDS011;9716;53.114;18.040;2023-12-14T13:29:42;3.77;;;2.57;;
19167;SDS011;9716;53.114;18.040;2023-12-14T13:32:12;4.43;;;2.23;;
19167;SDS011;9716;53.114;18.040;2023-12-14T13:34:40;5.90;;;2.77;;
19167;SDS011;9716;53.114;18.040;2023-12-14T13:37:11;6.37;;;2.90;;
19167;SDS011;9716;53.114;18.040;2023-12-14T13:39:40;6.07;;;2.97;;
19167;SDS011;9716;53.114;18.040;2023-12-14T13:42:09;6.83;;;2.13;;
19167;SDS011;9716;53.114;18.040;2023-12-14T13:44:37;6.07;;;2.10;;
19167;SDS011;9716;53.114;18.040;2023-12-14T13:47:06;5.60;;;2.67;;
19167;SDS011;9716;53.114;18.040;2023-12-14T13:49:35;9.57;;;2.60;;
19167;SDS011;9716;53.114;18.040;2023-12-14T13:52:04;4.33;;;2.57;;
19167;SDS011;9716;53.114;18.040;2023-12-14T13:54:34;3.77;;;2.20;;
19167;SDS011;9716;53.114;18.040;2023-12-14T13:57:03;5.60;;;2.23;;
19167;SDS011;9716;53.114;18.040;2023-12-14T13:59:33;5.17;;;2.80;;
19167;SDS011;9716;53.114;18.040;2023-12-14T14:02:01;5.63;;;2.57;;
19167;SDS011;9716;53.114;18.040;2023-12-14T14:04:30;5.80;;;2.50;;
19167;SDS011;9716;53.114;18.040;2023-12-14T14:06:59;8.07;;;2.77;;
19167;SDS011;9716;53.114;18.040;2023-12-14T14:09:27;7.27;;;3.10;;
19167;SDS011;9716;53.114;18.040;2023-12-14T14:11:58;5.03;;;3.10;;
19167;SDS011;9716;53.114;18.040;2023-12-14T14:14:26;6.53;;;2.50;;
19167;SDS011;9716;53.114;18.040;2023-12-14T14:16:55;5.53;;;3.00;;
19167;SDS011;9716;53.114;18.040;2023-12-14T14:19:23;6.23;;;2.90;;
19167;SDS011;9716;53.114;18.040;2023-12-14T14:21:52;6.93;;;3.43;;
19167;SDS011;9716;53.114;18.040;2023-12-14T14:24:20;3.87;;;2.23;;
19167;SDS011;9716;53.114;18.040;2023-12-14T14:26:49;5.53;;;2.40;;
19167;SDS011;9716;53.114;18.040;2023-12-14T14:29:20;5.97;;;2.77;;
19167;SDS011;9716;53.114;18.040;2023-12-14T14:31:49;8.37;;;2.57;;
19167;SDS011;9716;53.114;18.040;2023-12-14T14:34:17;6.67;;;3.03;;
19167;SDS011;9716;53.114;18.040;2023-12-14T14:36:50;5.13;;;2.60;;
19167;SDS011;9716;53.114;18.040;2023-12-14T14:39:19;8.93;;;3.67;;
19167;SDS011;9716;53.114;18.040;2023-12-14T14:41:47;6.87;;;2.90;;
19167;SDS011;9716;53.114;18.040;2023-12-14T14:44:16;7.87;;;3.50;;
19167;SDS011;9716;53.114;18.040;2023-12-14T14:46:46;7.63;;;3.50;;
19167;SDS011;9716;53.114;18.040;2023-12-14T14:49:14;6.47;;;2.90;;
19167;SDS011;9716;53.114;18.040;2023-12-14T14:51:43;5.50;;;2.90;;
19167;SDS011;9716;53.114;18.040;2023-12-14T14:54:11;10.00;;;2.87;;
19167;SDS011;9716;53.114;18.040;2023-12-14T14:56:40;4.80;;;2.70;;